sensor_id;sensor_type;location;lat;lon;timestamp;P1;durP1;ratioP1;P2;durP2;ratioP2
29246;SDS011;16272;48.188;9.964;2023-02-20T00:02:13;7.07;;;2.03;;
29246;SDS011;16272;48.188;9.964;2023-02-20T00:04:39;7.10;;;1.90;;
29246;SDS011;16272;48.188;9.964;2023-02-20T00:07:04;6.77;;;1.90;;
29246;SDS011;16272;48.188;9.964;2023-02-20T00:09:29;7.60;;;1.87;;
29246;SDS011;16272;48.188;9.964;2023-02-20T00:11:55;6.27;;;2.20;;
29246;SDS011;16272;48.188;9.964;2023-02-20T00:14:20;9.17;;;2.00;;
29246;SDS011;16272;48.188;9.964;2023-02-20T00:16:46;6.72;;;1.67;;
29246;SDS011;16272;48.188;9.964;2023-02-20T00:19:12;7.13;;;2.00;;
29246;SDS011;16272;48.188;9.964;2023-02-20T00:21:40;9.23;;;1.90;;
29246;SDS011;16272;48.188;9.964;2023-02-20T00:24:09;6.20;;;1.77;;
29246;SDS011;16272;48.188;9.964;2023-02-20T00:26:34;7.50;;;2.10;;
29246;SDS011;16272;48.188;9.964;2023-02-20T00:28:59;6.93;;;1.97;;
29246;SDS011;16272;48.188;9.964;2023-02-20T00:31:25;7.18;;;1.90;;
29246;SDS011;16272;48.188;9.964;2023-02-20T00:33:50;7.03;;;2.10;;
29246;SDS011;16272;48.188;9.964;2023-02-20T00:36:16;6.30;;;2.10;;
29246;SDS011;16272;48.188;9.964;2023-02-20T00:38:43;7.32;;;1.80;;
29246;SDS011;16272;48.188;9.964;2023-02-20T00:41:08;6.10;;;2.00;;
29246;SDS011;16272;48.188;9.964;2023-02-20T00:43:35;6.70;;;1.80;;
29246;SDS011;16272;48.188;9.964;2023-02-20T00:46:01;7.73;;;1.97;;
29246;SDS011;16272;48.188;9.964;2023-02-20T00:48:26;7.20;;;2.10;;
29246;SDS011;16272;48.188;9.964;2023-02-20T00:50:51;8.87;;;1.80;;
29246;SDS011;16272;48.188;9.964;2023-02-20T00:53:17;7.87;;;2.20;;
29246;SDS011;16272;48.188;9.964;2023-02-20T00:55:42;6.77;;;1.70;;
29246;SDS011;16272;48.188;9.964;2023-02-20T00:58:07;7.50;;;1.93;;
29246;SDS011;16272;48.188;9.964;2023-02-20T01:00:33;8.13;;;2.20;;
29246;SDS011;16272;48.188;9.964;2023-02-20T01:02:58;5.87;;;2.00;;
29246;SDS011;16272;48.188;9.964;2023-02-20T01:05:23;6.87;;;1.73;;
29246;SDS011;16272;48.188;9.964;2023-02-20T01:07:49;7.17;;;1.97;;
29246;SDS011;16272;48.188;9.964;2023-02-20T01:12:40;8.02;;;2.38;;
29246;SDS011;16272;48.188;9.964;2023-02-20T01:15:06;5.73;;;1.60;;
29246;SDS011;16272;48.188;9.964;2023-02-20T01:17:32;8.13;;;1.70;;
29246;SDS011;16272;48.188;9.964;2023-02-20T01:19:58;8.43;;;2.00;;
29246;SDS011;16272;48.188;9.964;2023-02-20T01:22:24;6.73;;;1.83;;
29246;SDS011;16272;48.188;9.964;2023-02-20T01:24:50;7.85;;;2.58;;
29246;SDS011;16272;48.188;9.964;2023-02-20T01:27:15;6.57;;;2.00;;
29246;SDS011;16272;48.188;9.964;2023-02-20T01:29:41;8.93;;;2.10;;
29246;SDS011;16272;48.188;9.964;2023-02-20T01:32:06;5.87;;;1.73;;
29246;SDS011;16272;48.188;9.964;2023-02-20T01:34:35;6.88;;;1.90;;
29246;SDS011;16272;48.188;9.964;2023-02-20T01:37:00;7.60;;;1.93;;
29246;SDS011;16272;48.188;9.964;2023-02-20T01:39:26;8.27;;;1.93;;
29246;SDS011;16272;48.188;9.964;2023-02-20T01:41:56;7.10;;;1.85;;
29246;SDS011;16272;48.188;9.964;2023-02-20T01:44:25;8.60;;;1.70;;
29246;SDS011;16272;48.188;9.964;2023-02-20T01:46:56;7.10;;;1.98;;
29246;SDS011;16272;48.188;9.964;2023-02-20T01:49:27;7.47;;;2.10;;
29246;SDS011;16272;48.188;9.964;2023-02-20T01:52:02;9.57;;;2.17;;
29246;SDS011;16272;48.188;9.964;2023-02-20T01:54:51;8.68;;;1.77;;
29246;SDS011;16272;48.188;9.964;2023-02-20T01:57:26;8.52;;;1.77;;
29246;SDS011;16272;48.188;9.964;2023-02-20T01:59:55;7.28;;;2.13;;
29246;SDS011;16272;48.188;9.964;2023-02-20T02:02:24;7.63;;;2.07;;
29246;SDS011;16272;48.188;9.964;2023-02-20T02:04:55;8.40;;;2.10;;
29246;SDS011;16272;48.188;9.964;2023-02-20T02:07:20;7.03;;;2.03;;
29246;SDS011;16272;48.188;9.964;2023-02-20T02:09:51;7.07;;;1.92;;
29246;SDS011;16272;48.188;9.964;2023-02-20T02:12:19;6.35;;;2.05;;
29246;SDS011;16272;48.188;9.964;2023-02-20T02:14:45;7.37;;;1.83;;
29246;SDS011;16272;48.188;9.964;2023-02-20T02:23:00;8.70;;;2.13;;
29246;SDS011;16272;48.188;9.964;2023-02-20T02:26:04;9.20;;;2.13;;
29246;SDS011;16272;48.188;9.964;2023-02-20T02:37:08;6.90;;;1.77;;
29246;SDS011;16272;48.188;9.964;2023-02-20T02:43:00;7.45;;;1.65;;
29246;SDS011;16272;48.188;9.964;2023-02-20T02:45:58;6.85;;;2.10;;
29246;SDS011;16272;48.188;9.964;2023-02-20T02:48:36;7.20;;;1.70;;
29246;SDS011;16272;48.188;9.964;2023-02-20T02:51:12;6.80;;;1.77;;
29246;SDS011;16272;48.188;9.964;2023-02-20T02:53:41;7.60;;;1.98;;
29246;SDS011;16272;48.188;9.964;2023-02-20T02:56:08;6.33;;;1.60;;
29246;SDS011;16272;48.188;9.964;2023-02-20T02:58:47;8.43;;;2.00;;
29246;SDS011;16272;48.188;9.964;2023-02-20T03:01:14;9.02;;;1.95;;
29246;SDS011;16272;48.188;9.964;2023-02-20T03:03:42;6.93;;;1.60;;
29246;SDS011;16272;48.188;9.964;2023-02-20T03:06:11;6.72;;;1.98;;
29246;SDS011;16272;48.188;9.964;2023-02-20T03:08:55;7.38;;;1.67;;
29246;SDS011;16272;48.188;9.964;2023-02-20T03:11:25;7.45;;;1.92;;
29246;SDS011;16272;48.188;9.964;2023-02-20T03:14:11;8.30;;;1.70;;
29246;SDS011;16272;48.188;9.964;2023-02-20T03:19:42;7.07;;;2.03;;
29246;SDS011;16272;48.188;9.964;2023-02-20T03:25:20;9.75;;;2.25;;
29246;SDS011;16272;48.188;9.964;2023-02-20T03:27:56;6.10;;;1.83;;
29246;SDS011;16272;48.188;9.964;2023-02-20T03:30:28;8.23;;;1.90;;
29246;SDS011;16272;48.188;9.964;2023-02-20T03:33:03;7.13;;;1.60;;
29246;SDS011;16272;48.188;9.964;2023-02-20T03:35:56;7.47;;;2.22;;
29246;SDS011;16272;48.188;9.964;2023-02-20T03:38:44;7.38;;;2.10;;
29246;SDS011;16272;48.188;9.964;2023-02-20T03:41:32;8.00;;;2.10;;
29246;SDS011;16272;48.188;9.964;2023-02-20T03:44:19;8.20;;;1.73;;
29246;SDS011;16272;48.188;9.964;2023-02-20T03:46:46;6.28;;;1.77;;
29246;SDS011;16272;48.188;9.964;2023-02-20T03:49:17;6.97;;;1.90;;
29246;SDS011;16272;48.188;9.964;2023-02-20T03:51:45;6.90;;;1.90;;
29246;SDS011;16272;48.188;9.964;2023-02-20T03:54:24;7.20;;;2.00;;
29246;SDS011;16272;48.188;9.964;2023-02-20T03:56:53;8.10;;;1.80;;
29246;SDS011;16272;48.188;9.964;2023-02-20T03:59:25;7.55;;;1.70;;
29246;SDS011;16272;48.188;9.964;2023-02-20T04:01:56;6.97;;;1.92;;
29246;SDS011;16272;48.188;9.964;2023-02-20T04:04:27;8.32;;;1.83;;
29246;SDS011;16272;48.188;9.964;2023-02-20T04:06:57;7.47;;;1.73;;
29246;SDS011;16272;48.188;9.964;2023-02-20T04:09:29;6.97;;;1.73;;
29246;SDS011;16272;48.188;9.964;2023-02-20T04:11:59;8.20;;;1.83;;
29246;SDS011;16272;48.188;9.964;2023-02-20T04:14:32;7.35;;;1.65;;
29246;SDS011;16272;48.188;9.964;2023-02-20T04:17:00;6.72;;;2.00;;
29246;SDS011;16272;48.188;9.964;2023-02-20T04:19:28;7.82;;;1.60;;
29246;SDS011;16272;48.188;9.964;2023-02-20T04:21:54;7.17;;;1.53;;
29246;SDS011;16272;48.188;9.964;2023-02-20T04:24:26;7.30;;;1.85;;
29246;SDS011;16272;48.188;9.964;2023-02-20T04:26:55;8.85;;;1.70;;
29246;SDS011;16272;48.188;9.964;2023-02-20T04:29:21;6.95;;;1.70;;
29246;SDS011;16272;48.188;9.964;2023-02-20T04:31:47;8.07;;;1.73;;
29246;SDS011;16272;48.188;9.964;2023-02-20T04:34:12;6.30;;;1.70;;
29246;SDS011;16272;48.188;9.964;2023-02-20T04:36:38;5.80;;;1.50;;
29246;SDS011;16272;48.188;9.964;2023-02-20T04:39:03;6.97;;;1.93;;
29246;SDS011;16272;48.188;9.964;2023-02-20T04:41:29;7.10;;;1.93;;
29246;SDS011;16272;48.188;9.964;2023-02-20T04:43:54;7.53;;;1.87;;
29246;SDS011;16272;48.188;9.964;2023-02-20T04:46:39;9.07;;;2.35;;
29246;SDS011;16272;48.188;9.964;2023-02-20T04:49:04;6.60;;;1.97;;
29246;SDS011;16272;48.188;9.964;2023-02-20T04:51:30;7.10;;;1.70;;
29246;SDS011;16272;48.188;9.964;2023-02-20T04:53:55;9.20;;;1.97;;
29246;SDS011;16272;48.188;9.964;2023-02-20T04:56:21;7.60;;;1.98;;
29246;SDS011;16272;48.188;9.964;2023-02-20T04:58:46;6.30;;;1.80;;
29246;SDS011;16272;48.188;9.964;2023-02-20T05:01:13;6.45;;;1.90;;
29246;SDS011;16272;48.188;9.964;2023-02-20T05:03:39;9.67;;;2.30;;
29246;SDS011;16272;48.188;9.964;2023-02-20T05:06:04;6.93;;;1.83;;
29246;SDS011;16272;48.188;9.964;2023-02-20T05:08:30;9.25;;;1.95;;
29246;SDS011;16272;48.188;9.964;2023-02-20T05:10:55;6.35;;;2.10;;
29246;SDS011;16272;48.188;9.964;2023-02-20T05:13:21;7.27;;;1.83;;
29246;SDS011;16272;48.188;9.964;2023-02-20T05:15:46;7.30;;;2.20;;
29246;SDS011;16272;48.188;9.964;2023-02-20T05:18:11;9.17;;;2.33;;
29246;SDS011;16272;48.188;9.964;2023-02-20T05:20:37;7.47;;;1.90;;
29246;SDS011;16272;48.188;9.964;2023-02-20T05:23:21;8.40;;;2.00;;
29246;SDS011;16272;48.188;9.964;2023-02-20T05:25:46;6.97;;;1.90;;
29246;SDS011;16272;48.188;9.964;2023-02-20T05:28:11;6.33;;;1.70;;
29246;SDS011;16272;48.188;9.964;2023-02-20T05:30:37;6.43;;;2.00;;
29246;SDS011;16272;48.188;9.964;2023-02-20T05:33:02;7.00;;;1.70;;
29246;SDS011;16272;48.188;9.964;2023-02-20T05:35:27;8.25;;;1.90;;
29246;SDS011;16272;48.188;9.964;2023-02-20T05:37:53;7.20;;;2.00;;
29246;SDS011;16272;48.188;9.964;2023-02-20T05:40:18;6.53;;;1.97;;
29246;SDS011;16272;48.188;9.964;2023-02-20T05:42:43;9.27;;;2.27;;
29246;SDS011;16272;48.188;9.964;2023-02-20T05:45:09;7.80;;;2.23;;
29246;SDS011;16272;48.188;9.964;2023-02-20T05:47:38;7.27;;;2.23;;
29246;SDS011;16272;48.188;9.964;2023-02-20T05:50:04;9.35;;;2.42;;
29246;SDS011;16272;48.188;9.964;2023-02-20T05:52:29;10.73;;;2.35;;
29246;SDS011;16272;48.188;9.964;2023-02-20T05:54:55;9.00;;;2.30;;
29246;SDS011;16272;48.188;9.964;2023-02-20T05:57:20;8.00;;;2.43;;
29246;SDS011;16272;48.188;9.964;2023-02-20T05:59:45;6.77;;;2.23;;
29246;SDS011;16272;48.188;9.964;2023-02-20T06:02:10;8.60;;;2.17;;
29246;SDS011;16272;48.188;9.964;2023-02-20T06:04:36;7.73;;;2.47;;
29246;SDS011;16272;48.188;9.964;2023-02-20T06:07:01;8.13;;;2.50;;
29246;SDS011;16272;48.188;9.964;2023-02-20T06:09:26;8.50;;;2.40;;
29246;SDS011;16272;48.188;9.964;2023-02-20T06:11:53;9.10;;;2.53;;
29246;SDS011;16272;48.188;9.964;2023-02-20T06:14:20;8.43;;;2.80;;
29246;SDS011;16272;48.188;9.964;2023-02-20T06:16:48;8.13;;;2.83;;
29246;SDS011;16272;48.188;9.964;2023-02-20T06:19:18;9.47;;;2.63;;
29246;SDS011;16272;48.188;9.964;2023-02-20T06:21:46;9.50;;;2.60;;
29246;SDS011;16272;48.188;9.964;2023-02-20T06:24:12;9.57;;;2.60;;
29246;SDS011;16272;48.188;9.964;2023-02-20T06:26:38;8.10;;;2.40;;
29246;SDS011;16272;48.188;9.964;2023-02-20T06:29:05;8.10;;;2.30;;
29246;SDS011;16272;48.188;9.964;2023-02-20T06:31:30;8.90;;;2.60;;
29246;SDS011;16272;48.188;9.964;2023-02-20T06:33:56;8.77;;;2.60;;
29246;SDS011;16272;48.188;9.964;2023-02-20T06:36:25;9.07;;;2.50;;
29246;SDS011;16272;48.188;9.964;2023-02-20T06:38:54;9.37;;;2.37;;
29246;SDS011;16272;48.188;9.964;2023-02-20T06:41:20;10.45;;;2.60;;
29246;SDS011;16272;48.188;9.964;2023-02-20T06:43:45;8.47;;;2.53;;
29246;SDS011;16272;48.188;9.964;2023-02-20T06:46:11;9.93;;;2.50;;
29246;SDS011;16272;48.188;9.964;2023-02-20T06:48:43;9.67;;;2.90;;
29246;SDS011;16272;48.188;9.964;2023-02-20T06:51:10;10.48;;;3.17;;
29246;SDS011;16272;48.188;9.964;2023-02-20T06:53:35;12.00;;;3.13;;
29246;SDS011;16272;48.188;9.964;2023-02-20T06:56:05;8.77;;;2.97;;
29246;SDS011;16272;48.188;9.964;2023-02-20T06:58:31;9.13;;;2.95;;
29246;SDS011;16272;48.188;9.964;2023-02-20T07:00:56;9.30;;;2.80;;
29246;SDS011;16272;48.188;9.964;2023-02-20T07:03:23;8.35;;;2.80;;
29246;SDS011;16272;48.188;9.964;2023-02-20T07:05:48;9.60;;;3.10;;
29246;SDS011;16272;48.188;9.964;2023-02-20T07:08:14;8.10;;;2.63;;
29246;SDS011;16272;48.188;9.964;2023-02-20T07:10:39;8.73;;;2.80;;
29246;SDS011;16272;48.188;9.964;2023-02-20T07:13:05;9.80;;;3.13;;
29246;SDS011;16272;48.188;9.964;2023-02-20T07:15:30;9.77;;;3.27;;
29246;SDS011;16272;48.188;9.964;2023-02-20T07:17:55;9.97;;;2.70;;
29246;SDS011;16272;48.188;9.964;2023-02-20T07:20:21;9.53;;;3.07;;
29246;SDS011;16272;48.188;9.964;2023-02-20T07:22:50;11.83;;;3.33;;
29246;SDS011;16272;48.188;9.964;2023-02-20T07:25:16;8.93;;;3.20;;
29246;SDS011;16272;48.188;9.964;2023-02-20T07:27:41;9.93;;;3.07;;
29246;SDS011;16272;48.188;9.964;2023-02-20T07:30:06;8.67;;;2.93;;
29246;SDS011;16272;48.188;9.964;2023-02-20T07:32:32;9.18;;;2.40;;
29246;SDS011;16272;48.188;9.964;2023-02-20T07:34:57;11.37;;;3.43;;
29246;SDS011;16272;48.188;9.964;2023-02-20T07:37:23;8.87;;;3.00;;
29246;SDS011;16272;48.188;9.964;2023-02-20T07:39:48;8.00;;;2.70;;
29246;SDS011;16272;48.188;9.964;2023-02-20T07:42:15;9.30;;;2.83;;
29246;SDS011;16272;48.188;9.964;2023-02-20T07:44:42;9.60;;;2.80;;
29246;SDS011;16272;48.188;9.964;2023-02-20T07:47:10;10.43;;;3.17;;
29246;SDS011;16272;48.188;9.964;2023-02-20T07:49:36;9.45;;;3.35;;
29246;SDS011;16272;48.188;9.964;2023-02-20T07:52:01;9.63;;;2.90;;
29246;SDS011;16272;48.188;9.964;2023-02-20T07:54:27;9.23;;;3.30;;
29246;SDS011;16272;48.188;9.964;2023-02-20T07:56:53;11.90;;;3.17;;
29246;SDS011;16272;48.188;9.964;2023-02-20T07:59:19;8.80;;;2.65;;
29246;SDS011;16272;48.188;9.964;2023-02-20T08:01:45;7.20;;;2.40;;
29246;SDS011;16272;48.188;9.964;2023-02-20T08:04:11;10.20;;;2.72;;
29246;SDS011;16272;48.188;9.964;2023-02-20T08:06:37;9.52;;;2.80;;
29246;SDS011;16272;48.188;9.964;2023-02-20T08:09:02;9.43;;;2.70;;
29246;SDS011;16272;48.188;9.964;2023-02-20T08:11:28;8.53;;;2.60;;
29246;SDS011;16272;48.188;9.964;2023-02-20T08:13:59;8.50;;;2.80;;
29246;SDS011;16272;48.188;9.964;2023-02-20T08:16:25;8.40;;;2.60;;
29246;SDS011;16272;48.188;9.964;2023-02-20T08:18:51;8.97;;;2.67;;
29246;SDS011;16272;48.188;9.964;2023-02-20T08:21:17;8.15;;;2.70;;
29246;SDS011;16272;48.188;9.964;2023-02-20T08:23:43;8.37;;;2.80;;
29246;SDS011;16272;48.188;9.964;2023-02-20T08:26:08;8.83;;;2.60;;
29246;SDS011;16272;48.188;9.964;2023-02-20T08:28:34;8.15;;;2.65;;
29246;SDS011;16272;48.188;9.964;2023-02-20T08:30:59;6.73;;;2.50;;
29246;SDS011;16272;48.188;9.964;2023-02-20T08:33:25;9.23;;;3.10;;
29246;SDS011;16272;48.188;9.964;2023-02-20T08:35:50;10.17;;;3.13;;
29246;SDS011;16272;48.188;9.964;2023-02-20T08:41:10;9.02;;;2.63;;
29246;SDS011;16272;48.188;9.964;2023-02-20T08:43:38;9.82;;;2.92;;
29246;SDS011;16272;48.188;9.964;2023-02-20T08:46:06;9.25;;;2.58;;
29246;SDS011;16272;48.188;9.964;2023-02-20T08:48:32;7.90;;;2.50;;
29246;SDS011;16272;48.188;9.964;2023-02-20T08:50:58;7.15;;;2.65;;
29246;SDS011;16272;48.188;9.964;2023-02-20T08:53:24;9.23;;;2.40;;
29246;SDS011;16272;48.188;9.964;2023-02-20T08:55:49;7.57;;;2.63;;
29246;SDS011;16272;48.188;9.964;2023-02-20T08:58:21;7.97;;;2.60;;
29246;SDS011;16272;48.188;9.964;2023-02-20T09:00:47;8.43;;;2.92;;
29246;SDS011;16272;48.188;9.964;2023-02-20T09:03:13;7.65;;;2.28;;
29246;SDS011;16272;48.188;9.964;2023-02-20T09:05:40;7.63;;;2.40;;
29246;SDS011;16272;48.188;9.964;2023-02-20T09:08:06;6.43;;;2.47;;
29246;SDS011;16272;48.188;9.964;2023-02-20T09:10:32;7.77;;;2.40;;
29246;SDS011;16272;48.188;9.964;2023-02-20T09:12:57;7.47;;;2.70;;
29246;SDS011;16272;48.188;9.964;2023-02-20T09:15:22;8.53;;;2.73;;
29246;SDS011;16272;48.188;9.964;2023-02-20T09:17:49;7.80;;;2.90;;
29246;SDS011;16272;48.188;9.964;2023-02-20T09:20:16;7.38;;;2.58;;
29246;SDS011;16272;48.188;9.964;2023-02-20T09:22:44;10.95;;;3.03;;
29246;SDS011;16272;48.188;9.964;2023-02-20T09:25:10;7.00;;;2.60;;
29246;SDS011;16272;48.188;9.964;2023-02-20T09:27:36;7.53;;;2.60;;
29246;SDS011;16272;48.188;9.964;2023-02-20T09:30:02;9.27;;;3.00;;
29246;SDS011;16272;48.188;9.964;2023-02-20T09:32:29;10.88;;;2.70;;
29246;SDS011;16272;48.188;9.964;2023-02-20T09:34:55;7.70;;;2.47;;
29246;SDS011;16272;48.188;9.964;2023-02-20T09:37:22;7.03;;;2.85;;
29246;SDS011;16272;48.188;9.964;2023-02-20T09:39:47;8.33;;;2.77;;
29246;SDS011;16272;48.188;9.964;2023-02-20T09:42:19;8.03;;;2.50;;
29246;SDS011;16272;48.188;9.964;2023-02-20T09:45:02;7.13;;;2.63;;
29246;SDS011;16272;48.188;9.964;2023-02-20T09:50:29;8.63;;;3.10;;
29246;SDS011;16272;48.188;9.964;2023-02-20T09:55:59;8.55;;;2.53;;
29246;SDS011;16272;48.188;9.964;2023-02-20T09:58:44;6.70;;;2.67;;
29246;SDS011;16272;48.188;9.964;2023-02-20T10:01:14;8.27;;;2.60;;
29246;SDS011;16272;48.188;9.964;2023-02-20T10:06:42;8.00;;;2.72;;
29246;SDS011;16272;48.188;9.964;2023-02-20T10:09:09;7.40;;;2.95;;
29246;SDS011;16272;48.188;9.964;2023-02-20T10:11:46;8.33;;;2.70;;
29246;SDS011;16272;48.188;9.964;2023-02-20T10:14:42;6.68;;;2.67;;
29246;SDS011;16272;48.188;9.964;2023-02-20T10:19:46;10.57;;;3.15;;
29246;SDS011;16272;48.188;9.964;2023-02-20T10:22:24;7.07;;;2.70;;
29246;SDS011;16272;48.188;9.964;2023-02-20T10:25:17;6.77;;;2.43;;
29246;SDS011;16272;48.188;9.964;2023-02-20T10:35:43;7.47;;;2.50;;
29246;SDS011;16272;48.188;9.964;2023-02-20T10:38:15;7.57;;;2.30;;
29246;SDS011;16272;48.188;9.964;2023-02-20T10:43:45;7.38;;;3.33;;
29246;SDS011;16272;48.188;9.964;2023-02-20T10:46:32;7.57;;;2.65;;
29246;SDS011;16272;48.188;9.964;2023-02-20T10:49:12;6.30;;;2.15;;
29246;SDS011;16272;48.188;9.964;2023-02-20T10:51:44;7.90;;;2.43;;
29246;SDS011;16272;48.188;9.964;2023-02-20T10:54:20;7.28;;;2.40;;
29246;SDS011;16272;48.188;9.964;2023-02-20T10:57:13;7.63;;;2.67;;
29246;SDS011;16272;48.188;9.964;2023-02-20T11:02:14;7.47;;;2.60;;
29246;SDS011;16272;48.188;9.964;2023-02-20T11:04:45;8.57;;;2.70;;
29246;SDS011;16272;48.188;9.964;2023-02-20T11:07:16;7.28;;;2.38;;
29246;SDS011;16272;48.188;9.964;2023-02-20T11:09:43;8.38;;;2.50;;
29246;SDS011;16272;48.188;9.964;2023-02-20T11:14:54;7.05;;;2.28;;
29246;SDS011;16272;48.188;9.964;2023-02-20T11:17:22;6.30;;;2.20;;
29246;SDS011;16272;48.188;9.964;2023-02-20T11:19:57;7.13;;;2.42;;
29246;SDS011;16272;48.188;9.964;2023-02-20T11:22:44;7.05;;;2.53;;
29246;SDS011;16272;48.188;9.964;2023-02-20T11:25:17;7.03;;;2.28;;
29246;SDS011;16272;48.188;9.964;2023-02-20T11:27:46;9.63;;;2.38;;
29246;SDS011;16272;48.188;9.964;2023-02-20T11:32:39;8.57;;;2.60;;
29246;SDS011;16272;48.188;9.964;2023-02-20T11:37:50;6.05;;;2.15;;
29246;SDS011;16272;48.188;9.964;2023-02-20T11:40:44;6.05;;;1.88;;
29246;SDS011;16272;48.188;9.964;2023-02-20T11:45:37;7.73;;;2.17;;
29246;SDS011;16272;48.188;9.964;2023-02-20T11:53:16;5.53;;;1.95;;
29246;SDS011;16272;48.188;9.964;2023-02-20T11:56:14;6.30;;;2.00;;
29246;SDS011;16272;48.188;9.964;2023-02-20T11:58:43;6.27;;;1.70;;
29246;SDS011;16272;48.188;9.964;2023-02-20T12:01:32;6.00;;;1.77;;
29246;SDS011;16272;48.188;9.964;2023-02-20T12:03:58;6.22;;;1.95;;
29246;SDS011;16272;48.188;9.964;2023-02-20T12:08:56;6.00;;;1.77;;
29246;SDS011;16272;48.188;9.964;2023-02-20T12:11:24;6.10;;;2.00;;
29246;SDS011;16272;48.188;9.964;2023-02-20T12:13:51;7.63;;;1.98;;
29246;SDS011;16272;48.188;9.964;2023-02-20T12:24:29;7.97;;;1.80;;
29246;SDS011;16272;48.188;9.964;2023-02-20T12:26:59;6.60;;;1.98;;
29246;SDS011;16272;48.188;9.964;2023-02-20T12:29:34;6.43;;;1.90;;
29246;SDS011;16272;48.188;9.964;2023-02-20T12:34:51;5.93;;;2.10;;
29246;SDS011;16272;48.188;9.964;2023-02-20T12:42:51;5.47;;;1.80;;
29246;SDS011;16272;48.188;9.964;2023-02-20T12:45:35;6.40;;;1.75;;
29246;SDS011;16272;48.188;9.964;2023-02-20T12:48:11;5.75;;;1.98;;
29246;SDS011;16272;48.188;9.964;2023-02-20T12:51:01;5.47;;;1.70;;
29246;SDS011;16272;48.188;9.964;2023-02-20T12:53:47;5.75;;;1.70;;
29246;SDS011;16272;48.188;9.964;2023-02-20T12:56:25;6.45;;;2.20;;
29246;SDS011;16272;48.188;9.964;2023-02-20T13:01:38;6.22;;;1.65;;
29246;SDS011;16272;48.188;9.964;2023-02-20T13:04:06;4.77;;;1.23;;
29246;SDS011;16272;48.188;9.964;2023-02-20T13:06:57;5.20;;;1.50;;
29246;SDS011;16272;48.188;9.964;2023-02-20T13:12:12;5.30;;;1.80;;
29246;SDS011;16272;48.188;9.964;2023-02-20T13:14:47;5.60;;;2.08;;
29246;SDS011;16272;48.188;9.964;2023-02-20T13:22:58;6.40;;;1.70;;
29246;SDS011;16272;48.188;9.964;2023-02-20T13:25:33;5.60;;;1.42;;
29246;SDS011;16272;48.188;9.964;2023-02-20T13:30:44;5.70;;;1.67;;
29246;SDS011;16272;48.188;9.964;2023-02-20T13:33:30;4.80;;;1.38;;
29246;SDS011;16272;48.188;9.964;2023-02-20T13:35:56;5.45;;;1.70;;
29246;SDS011;16272;48.188;9.964;2023-02-20T13:38:23;4.93;;;1.40;;
29246;SDS011;16272;48.188;9.964;2023-02-20T13:45:45;6.20;;;1.93;;
29246;SDS011;16272;48.188;9.964;2023-02-20T13:51:38;6.97;;;2.20;;
29246;SDS011;16272;48.188;9.964;2023-02-20T13:53:39;5.43;;;1.88;;
29246;SDS011;16272;48.188;9.964;2023-02-20T13:56:15;6.35;;;2.40;;
29246;SDS011;16272;48.188;9.964;2023-02-20T13:58:43;6.13;;;2.10;;
29246;SDS011;16272;48.188;9.964;2023-02-20T14:01:09;6.70;;;2.00;;
29246;SDS011;16272;48.188;9.964;2023-02-20T14:03:34;7.53;;;2.10;;
29246;SDS011;16272;48.188;9.964;2023-02-20T14:06:03;6.13;;;1.97;;
29246;SDS011;16272;48.188;9.964;2023-02-20T14:08:31;6.40;;;2.07;;
29246;SDS011;16272;48.188;9.964;2023-02-20T14:11:30;6.45;;;2.17;;
29246;SDS011;16272;48.188;9.964;2023-02-20T14:13:52;5.83;;;2.03;;
29246;SDS011;16272;48.188;9.964;2023-02-20T14:16:32;5.82;;;2.00;;
29246;SDS011;16272;48.188;9.964;2023-02-20T14:19:21;6.05;;;2.33;;
29246;SDS011;16272;48.188;9.964;2023-02-20T14:21:47;6.68;;;1.80;;
29246;SDS011;16272;48.188;9.964;2023-02-20T14:26:49;7.53;;;1.90;;
29246;SDS011;16272;48.188;9.964;2023-02-20T14:31:51;6.40;;;1.73;;
29246;SDS011;16272;48.188;9.964;2023-02-20T14:34:21;6.57;;;1.90;;
29246;SDS011;16272;48.188;9.964;2023-02-20T14:39:28;6.40;;;2.20;;
29246;SDS011;16272;48.188;9.964;2023-02-20T14:42:02;6.20;;;2.00;;
29246;SDS011;16272;48.188;9.964;2023-02-20T14:44:29;5.72;;;1.90;;
29246;SDS011;16272;48.188;9.964;2023-02-20T14:47:09;5.78;;;2.08;;
29246;SDS011;16272;48.188;9.964;2023-02-20T14:49:37;6.00;;;1.70;;
29246;SDS011;16272;48.188;9.964;2023-02-20T14:54:34;5.37;;;1.73;;
29246;SDS011;16272;48.188;9.964;2023-02-20T14:57:01;7.90;;;1.80;;
29246;SDS011;16272;48.188;9.964;2023-02-20T14:59:32;5.55;;;1.80;;
29246;SDS011;16272;48.188;9.964;2023-02-20T15:02:00;8.13;;;2.05;;
29246;SDS011;16272;48.188;9.964;2023-02-20T15:04:27;7.65;;;1.85;;
29246;SDS011;16272;48.188;9.964;2023-02-20T15:06:54;5.47;;;1.70;;
29246;SDS011;16272;48.188;9.964;2023-02-20T15:09:37;5.93;;;1.80;;
29246;SDS011;16272;48.188;9.964;2023-02-20T15:12:05;5.60;;;1.75;;
29246;SDS011;16272;48.188;9.964;2023-02-20T15:14:33;8.10;;;2.10;;
29246;SDS011;16272;48.188;9.964;2023-02-20T15:17:08;6.00;;;1.73;;
29246;SDS011;16272;48.188;9.964;2023-02-20T15:19:44;7.50;;;2.20;;
29246;SDS011;16272;48.188;9.964;2023-02-20T15:22:21;5.60;;;2.00;;
29246;SDS011;16272;48.188;9.964;2023-02-20T15:24:49;5.78;;;1.98;;
29246;SDS011;16272;48.188;9.964;2023-02-20T15:27:16;6.10;;;1.80;;
29246;SDS011;16272;48.188;9.964;2023-02-20T15:29:44;5.93;;;1.70;;
29246;SDS011;16272;48.188;9.964;2023-02-20T15:32:23;7.15;;;1.90;;
29246;SDS011;16272;48.188;9.964;2023-02-20T15:34:53;6.47;;;2.20;;
29246;SDS011;16272;48.188;9.964;2023-02-20T15:37:22;6.35;;;2.00;;
29246;SDS011;16272;48.188;9.964;2023-02-20T15:39:50;7.00;;;1.95;;
29246;SDS011;16272;48.188;9.964;2023-02-20T15:42:17;6.00;;;1.70;;
29246;SDS011;16272;48.188;9.964;2023-02-20T15:44:45;5.55;;;1.98;;
29246;SDS011;16272;48.188;9.964;2023-02-20T15:47:11;5.90;;;1.90;;
29246;SDS011;16272;48.188;9.964;2023-02-20T15:49:36;5.50;;;1.90;;
29246;SDS011;16272;48.188;9.964;2023-02-20T15:52:02;6.33;;;2.10;;
29246;SDS011;16272;48.188;9.964;2023-02-20T15:54:30;7.97;;;2.00;;
29246;SDS011;16272;48.188;9.964;2023-02-20T15:56:55;6.10;;;2.00;;
29246;SDS011;16272;48.188;9.964;2023-02-20T15:59:22;6.63;;;1.93;;
29246;SDS011;16272;48.188;9.964;2023-02-20T16:01:47;6.65;;;1.63;;
29246;SDS011;16272;48.188;9.964;2023-02-20T16:04:14;6.63;;;1.97;;
29246;SDS011;16272;48.188;9.964;2023-02-20T16:06:41;7.07;;;1.90;;
29246;SDS011;16272;48.188;9.964;2023-02-20T16:09:07;6.38;;;2.10;;
29246;SDS011;16272;48.188;9.964;2023-02-20T16:11:36;7.07;;;2.00;;
29246;SDS011;16272;48.188;9.964;2023-02-20T16:14:04;5.03;;;1.70;;
29246;SDS011;16272;48.188;9.964;2023-02-20T16:16:34;6.13;;;2.10;;
29246;SDS011;16272;48.188;9.964;2023-02-20T16:19:02;6.35;;;2.22;;
29246;SDS011;16272;48.188;9.964;2023-02-20T16:21:29;8.07;;;1.83;;
29246;SDS011;16272;48.188;9.964;2023-02-20T16:23:55;7.20;;;2.20;;
29246;SDS011;16272;48.188;9.964;2023-02-20T16:26:21;5.70;;;1.87;;
29246;SDS011;16272;48.188;9.964;2023-02-20T16:29:02;7.70;;;1.67;;
29246;SDS011;16272;48.188;9.964;2023-02-20T16:34:18;6.93;;;1.73;;
29246;SDS011;16272;48.188;9.964;2023-02-20T16:36:48;6.75;;;1.80;;
29246;SDS011;16272;48.188;9.964;2023-02-20T16:39:14;6.47;;;1.80;;
29246;SDS011;16272;48.188;9.964;2023-02-20T16:41:40;6.40;;;1.80;;
29246;SDS011;16272;48.188;9.964;2023-02-20T16:44:12;5.57;;;1.70;;
29246;SDS011;16272;48.188;9.964;2023-02-20T16:46:48;6.30;;;1.80;;
29246;SDS011;16272;48.188;9.964;2023-02-20T16:49:15;6.38;;;1.90;;
29246;SDS011;16272;48.188;9.964;2023-02-20T16:51:41;5.97;;;1.73;;
29246;SDS011;16272;48.188;9.964;2023-02-20T16:54:12;6.05;;;2.00;;
29246;SDS011;16272;48.188;9.964;2023-02-20T16:56:40;7.63;;;2.10;;
29246;SDS011;16272;48.188;9.964;2023-02-20T16:59:06;5.50;;;1.80;;
29246;SDS011;16272;48.188;9.964;2023-02-20T17:01:33;5.90;;;2.00;;
29246;SDS011;16272;48.188;9.964;2023-02-20T17:03:59;7.33;;;2.20;;
29246;SDS011;16272;48.188;9.964;2023-02-20T17:06:24;8.20;;;2.20;;